sensor_id;sensor_type;location;lat;lon;timestamp;P1;durP1;ratioP1;P2;durP2;ratioP2
79308;SDS011;68767;53.078;7.386;2023-04-24T00:01:46;2.75;;;1.83;;
79308;SDS011;68767;53.078;7.386;2023-04-24T00:04:13;3.42;;;2.08;;
79308;SDS011;68767;53.078;7.386;2023-04-24T00:06:43;3.97;;;1.83;;
79308;SDS011;68767;53.078;7.386;2023-04-24T00:09:10;3.38;;;2.05;;
79308;SDS011;68767;53.078;7.386;2023-04-24T00:11:37;3.85;;;2.28;;
79308;SDS011;68767;53.078;7.386;2023-04-24T00:14:04;2.95;;;1.63;;
79308;SDS011;68767;53.078;7.386;2023-04-24T00:16:31;3.75;;;1.95;;
79308;SDS011;68767;53.078;7.386;2023-04-24T00:18:58;2.80;;;1.67;;
79308;SDS011;68767;53.078;7.386;2023-04-24T00:21:27;3.90;;;1.73;;
79308;SDS011;68767;53.078;7.386;2023-04-24T00:23:54;2.85;;;1.80;;
79308;SDS011;68767;53.078;7.386;2023-04-24T00:26:21;2.60;;;1.40;;
79308;SDS011;68767;53.078;7.386;2023-04-24T00:28:47;3.47;;;1.92;;
79308;SDS011;68767;53.078;7.386;2023-04-24T00:31:15;3.13;;;1.83;;
79308;SDS011;68767;53.078;7.386;2023-04-24T00:33:41;4.88;;;1.85;;
79308;SDS011;68767;53.078;7.386;2023-04-24T00:36:09;2.90;;;1.50;;
79308;SDS011;68767;53.078;7.386;2023-04-24T00:38:36;6.63;;;2.20;;
79308;SDS011;68767;53.078;7.386;2023-04-24T00:41:03;3.35;;;1.73;;
79308;SDS011;68767;53.078;7.386;2023-04-24T00:43:30;5.68;;;2.45;;
79308;SDS011;68767;53.078;7.386;2023-04-24T00:45:57;5.80;;;2.63;;
79308;SDS011;68767;53.078;7.386;2023-04-24T00:48:24;5.93;;;2.88;;
79308;SDS011;68767;53.078;7.386;2023-04-24T00:50:51;5.28;;;2.70;;
79308;SDS011;68767;53.078;7.386;2023-04-24T00:53:18;4.65;;;2.58;;
79308;SDS011;68767;53.078;7.386;2023-04-24T00:55:45;5.28;;;3.25;;
79308;SDS011;68767;53.078;7.386;2023-04-24T00:58:13;4.90;;;2.70;;
79308;SDS011;68767;53.078;7.386;2023-04-24T01:00:40;5.25;;;3.20;;
79308;SDS011;68767;53.078;7.386;2023-04-24T01:03:07;6.50;;;3.28;;
79308;SDS011;68767;53.078;7.386;2023-04-24T01:05:35;6.75;;;3.33;;
79308;SDS011;68767;53.078;7.386;2023-04-24T01:08:02;4.90;;;3.13;;
79308;SDS011;68767;53.078;7.386;2023-04-24T01:10:29;6.57;;;3.38;;
79308;SDS011;68767;53.078;7.386;2023-04-24T01:12:59;7.38;;;3.92;;
79308;SDS011;68767;53.078;7.386;2023-04-24T01:15:26;9.00;;;5.07;;
79308;SDS011;68767;53.078;7.386;2023-04-24T01:17:53;5.93;;;3.55;;
79308;SDS011;68767;53.078;7.386;2023-04-24T01:20:20;8.55;;;4.40;;
79308;SDS011;68767;53.078;7.386;2023-04-24T01:22:47;9.82;;;5.03;;
79308;SDS011;68767;53.078;7.386;2023-04-24T01:25:15;7.75;;;4.05;;
79308;SDS011;68767;53.078;7.386;2023-04-24T01:27:42;6.85;;;3.58;;
79308;SDS011;68767;53.078;7.386;2023-04-24T01:30:10;10.75;;;5.25;;
79308;SDS011;68767;53.078;7.386;2023-04-24T01:32:38;14.65;;;5.32;;
79308;SDS011;68767;53.078;7.386;2023-04-24T01:35:07;11.25;;;5.43;;
79308;SDS011;68767;53.078;7.386;2023-04-24T01:37:34;8.45;;;4.03;;
79308;SDS011;68767;53.078;7.386;2023-04-24T01:40:04;12.45;;;6.30;;
79308;SDS011;68767;53.078;7.386;2023-04-24T01:42:34;9.93;;;6.18;;
79308;SDS011;68767;53.078;7.386;2023-04-24T01:45:01;9.02;;;4.50;;
79308;SDS011;68767;53.078;7.386;2023-04-24T01:47:29;10.68;;;5.65;;
79308;SDS011;68767;53.078;7.386;2023-04-24T01:49:57;8.57;;;4.43;;
79308;SDS011;68767;53.078;7.386;2023-04-24T01:52:24;12.05;;;6.25;;
79308;SDS011;68767;53.078;7.386;2023-04-24T01:54:52;9.57;;;5.70;;
79308;SDS011;68767;53.078;7.386;2023-04-24T01:57:19;24.52;;;10.45;;
79308;SDS011;68767;53.078;7.386;2023-04-24T01:59:46;15.27;;;8.07;;
79308;SDS011;68767;53.078;7.386;2023-04-24T02:02:13;11.23;;;6.50;;
79308;SDS011;68767;53.078;7.386;2023-04-24T02:04:41;12.25;;;5.30;;
79308;SDS011;68767;53.078;7.386;2023-04-24T02:07:08;9.70;;;6.15;;
79308;SDS011;68767;53.078;7.386;2023-04-24T02:09:35;9.13;;;5.47;;
79308;SDS011;68767;53.078;7.386;2023-04-24T02:12:02;10.32;;;5.47;;
79308;SDS011;68767;53.078;7.386;2023-04-24T02:14:28;10.30;;;5.10;;
79308;SDS011;68767;53.078;7.386;2023-04-24T02:16:55;13.43;;;7.35;;
79308;SDS011;68767;53.078;7.386;2023-04-24T02:19:22;12.88;;;7.28;;
79308;SDS011;68767;53.078;7.386;2023-04-24T02:21:49;11.43;;;5.80;;
79308;SDS011;68767;53.078;7.386;2023-04-24T02:24:16;15.40;;;7.45;;
79308;SDS011;68767;53.078;7.386;2023-04-24T02:26:43;16.30;;;7.82;;
79308;SDS011;68767;53.078;7.386;2023-04-24T02:29:10;17.38;;;9.45;;
79308;SDS011;68767;53.078;7.386;2023-04-24T02:31:37;12.43;;;6.30;;
79308;SDS011;68767;53.078;7.386;2023-04-24T02:34:05;14.02;;;7.50;;
79308;SDS011;68767;53.078;7.386;2023-04-24T02:36:32;12.98;;;6.95;;
79308;SDS011;68767;53.078;7.386;2023-04-24T02:38:59;13.48;;;6.43;;
79308;SDS011;68767;53.078;7.386;2023-04-24T02:41:26;17.02;;;6.68;;
79308;SDS011;68767;53.078;7.386;2023-04-24T02:43:58;19.98;;;7.70;;
79308;SDS011;68767;53.078;7.386;2023-04-24T02:46:25;15.20;;;7.43;;
79308;SDS011;68767;53.078;7.386;2023-04-24T02:48:52;12.90;;;8.85;;
79308;SDS011;68767;53.078;7.386;2023-04-24T02:51:19;12.25;;;6.72;;
79308;SDS011;68767;53.078;7.386;2023-04-24T02:53:46;16.90;;;8.52;;
79308;SDS011;68767;53.078;7.386;2023-04-24T02:56:13;17.10;;;8.70;;
79308;SDS011;68767;53.078;7.386;2023-04-24T02:58:40;12.55;;;7.68;;
79308;SDS011;68767;53.078;7.386;2023-04-24T03:01:07;15.75;;;8.77;;
79308;SDS011;68767;53.078;7.386;2023-04-24T03:03:34;13.90;;;7.88;;
79308;SDS011;68767;53.078;7.386;2023-04-24T03:06:01;35.97;;;14.25;;
79308;SDS011;68767;53.078;7.386;2023-04-24T03:08:28;16.08;;;7.43;;
79308;SDS011;68767;53.078;7.386;2023-04-24T03:10:55;15.23;;;7.20;;
79308;SDS011;68767;53.078;7.386;2023-04-24T03:13:22;15.73;;;7.10;;
79308;SDS011;68767;53.078;7.386;2023-04-24T03:15:49;12.98;;;6.75;;
79308;SDS011;68767;53.078;7.386;2023-04-24T03:18:16;12.70;;;6.68;;
79308;SDS011;68767;53.078;7.386;2023-04-24T03:20:45;11.05;;;5.70;;
79308;SDS011;68767;53.078;7.386;2023-04-24T03:23:13;10.07;;;5.70;;
79308;SDS011;68767;53.078;7.386;2023-04-24T03:25:40;9.68;;;4.95;;
79308;SDS011;68767;53.078;7.386;2023-04-24T03:30:41;9.63;;;5.03;;
79308;SDS011;68767;53.078;7.386;2023-04-24T03:33:09;9.85;;;5.57;;
79308;SDS011;68767;53.078;7.386;2023-04-24T03:35:42;13.15;;;6.30;;
79308;SDS011;68767;53.078;7.386;2023-04-24T03:38:11;14.52;;;6.85;;
79308;SDS011;68767;53.078;7.386;2023-04-24T03:40:46;10.10;;;5.20;;
79308;SDS011;68767;53.078;7.386;2023-04-24T03:43:28;10.32;;;5.72;;
79308;SDS011;68767;53.078;7.386;2023-04-24T03:45:57;8.20;;;5.22;;
79308;SDS011;68767;53.078;7.386;2023-04-24T03:48:29;10.95;;;5.43;;
79308;SDS011;68767;53.078;7.386;2023-04-24T03:50:56;11.20;;;5.43;;
79308;SDS011;68767;53.078;7.386;2023-04-24T03:53:23;10.35;;;5.43;;
79308;SDS011;68767;53.078;7.386;2023-04-24T03:55:50;7.50;;;4.88;;
79308;SDS011;68767;53.078;7.386;2023-04-24T03:58:17;8.55;;;4.80;;
79308;SDS011;68767;53.078;7.386;2023-04-24T04:00:44;13.13;;;7.13;;
79308;SDS011;68767;53.078;7.386;2023-04-24T04:03:36;13.18;;;5.38;;
79308;SDS011;68767;53.078;7.386;2023-04-24T04:06:04;5.93;;;3.67;;
79308;SDS011;68767;53.078;7.386;2023-04-24T04:08:31;9.55;;;4.65;;
79308;SDS011;68767;53.078;7.386;2023-04-24T04:11:00;8.98;;;4.03;;
79308;SDS011;68767;53.078;7.386;2023-04-24T04:13:30;9.68;;;4.65;;
79308;SDS011;68767;53.078;7.386;2023-04-24T04:15:58;10.85;;;5.65;;
79308;SDS011;68767;53.078;7.386;2023-04-24T04:18:25;10.75;;;5.45;;
79308;SDS011;68767;53.078;7.386;2023-04-24T04:20:52;8.02;;;5.47;;
79308;SDS011;68767;53.078;7.386;2023-04-24T04:23:19;10.70;;;5.35;;
79308;SDS011;68767;53.078;7.386;2023-04-24T04:25:57;8.15;;;4.68;;
79308;SDS011;68767;53.078;7.386;2023-04-24T04:28:36;19.48;;;8.35;;
79308;SDS011;68767;53.078;7.386;2023-04-24T04:31:04;10.63;;;6.05;;
79308;SDS011;68767;53.078;7.386;2023-04-24T04:33:32;10.68;;;5.30;;
79308;SDS011;68767;53.078;7.386;2023-04-24T04:35:59;9.32;;;4.72;;
79308;SDS011;68767;53.078;7.386;2023-04-24T04:38:29;9.32;;;5.75;;
79308;SDS011;68767;53.078;7.386;2023-04-24T04:41:09;12.95;;;6.20;;
79308;SDS011;68767;53.078;7.386;2023-04-24T04:43:36;9.85;;;5.70;;
79308;SDS011;68767;53.078;7.386;2023-04-24T04:46:05;9.45;;;5.53;;
79308;SDS011;68767;53.078;7.386;2023-04-24T04:48:46;13.38;;;5.70;;
79308;SDS011;68767;53.078;7.386;2023-04-24T04:51:13;10.85;;;5.47;;
79308;SDS011;68767;53.078;7.386;2023-04-24T04:53:40;12.52;;;6.00;;
79308;SDS011;68767;53.078;7.386;2023-04-24T04:56:07;10.30;;;5.15;;
79308;SDS011;68767;53.078;7.386;2023-04-24T04:58:44;11.38;;;5.72;;
79308;SDS011;68767;53.078;7.386;2023-04-24T05:01:14;12.80;;;6.15;;
79308;SDS011;68767;53.078;7.386;2023-04-24T05:03:44;11.30;;;5.78;;
79308;SDS011;68767;53.078;7.386;2023-04-24T05:06:14;13.07;;;5.88;;
79308;SDS011;68767;53.078;7.386;2023-04-24T05:08:44;12.55;;;6.35;;
79308;SDS011;68767;53.078;7.386;2023-04-24T05:11:22;16.00;;;8.32;;
79308;SDS011;68767;53.078;7.386;2023-04-24T05:13:50;15.77;;;7.35;;
79308;SDS011;68767;53.078;7.386;2023-04-24T05:16:24;15.95;;;7.03;;
79308;SDS011;68767;53.078;7.386;2023-04-24T05:18:53;10.40;;;7.47;;
79308;SDS011;68767;53.078;7.386;2023-04-24T05:21:26;16.38;;;7.70;;
79308;SDS011;68767;53.078;7.386;2023-04-24T05:23:54;13.23;;;5.97;;
79308;SDS011;68767;53.078;7.386;2023-04-24T05:26:42;13.90;;;7.93;;
79308;SDS011;68767;53.078;7.386;2023-04-24T05:29:09;13.50;;;6.22;;
79308;SDS011;68767;53.078;7.386;2023-04-24T05:31:36;12.20;;;6.28;;
79308;SDS011;68767;53.078;7.386;2023-04-24T05:34:04;15.20;;;7.28;;
79308;SDS011;68767;53.078;7.386;2023-04-24T05:36:32;13.30;;;6.70;;
79308;SDS011;68767;53.078;7.386;2023-04-24T05:38:59;11.48;;;6.00;;
79308;SDS011;68767;53.078;7.386;2023-04-24T05:41:26;11.93;;;6.47;;
79308;SDS011;68767;53.078;7.386;2023-04-24T05:43:53;11.63;;;6.53;;
79308;SDS011;68767;53.078;7.386;2023-04-24T05:46:20;12.27;;;6.18;;
79308;SDS011;68767;53.078;7.386;2023-04-24T05:48:47;8.50;;;4.88;;
79308;SDS011;68767;53.078;7.386;2023-04-24T05:51:14;14.95;;;6.78;;
79308;SDS011;68767;53.078;7.386;2023-04-24T05:53:41;12.65;;;7.18;;
79308;SDS011;68767;53.078;7.386;2023-04-24T05:56:08;10.70;;;5.88;;
79308;SDS011;68767;53.078;7.386;2023-04-24T05:58:35;8.90;;;4.68;;
79308;SDS011;68767;53.078;7.386;2023-04-24T06:01:04;7.65;;;4.38;;
79308;SDS011;68767;53.078;7.386;2023-04-24T06:03:32;8.38;;;5.00;;
79308;SDS011;68767;53.078;7.386;2023-04-24T06:06:02;9.27;;;5.30;;
79308;SDS011;68767;53.078;7.386;2023-04-24T06:08:29;9.00;;;4.45;;
79308;SDS011;68767;53.078;7.386;2023-04-24T06:10:56;8.27;;;4.78;;
79308;SDS011;68767;53.078;7.386;2023-04-24T06:13:23;7.80;;;4.47;;
79308;SDS011;68767;53.078;7.386;2023-04-24T06:16:09;10.20;;;5.20;;
79308;SDS011;68767;53.078;7.386;2023-04-24T06:18:39;9.45;;;5.32;;
79308;SDS011;68767;53.078;7.386;2023-04-24T06:21:06;7.63;;;3.97;;
79308;SDS011;68767;53.078;7.386;2023-04-24T06:23:33;9.13;;;5.22;;
79308;SDS011;68767;53.078;7.386;2023-04-24T06:26:00;6.43;;;3.42;;
79308;SDS011;68767;53.078;7.386;2023-04-24T06:28:27;7.65;;;4.50;;
79308;SDS011;68767;53.078;7.386;2023-04-24T06:30:54;7.45;;;4.18;;
79308;SDS011;68767;53.078;7.386;2023-04-24T06:33:21;7.00;;;4.05;;
79308;SDS011;68767;53.078;7.386;2023-04-24T06:35:49;5.13;;;3.33;;
79308;SDS011;68767;53.078;7.386;2023-04-24T06:38:16;4.82;;;2.80;;
79308;SDS011;68767;53.078;7.386;2023-04-24T06:40:43;7.80;;;3.60;;
79308;SDS011;68767;53.078;7.386;2023-04-24T06:43:10;5.18;;;2.75;;
79308;SDS011;68767;53.078;7.386;2023-04-24T06:45:38;5.80;;;2.83;;
79308;SDS011;68767;53.078;7.386;2023-04-24T06:48:06;6.80;;;3.33;;
79308;SDS011;68767;53.078;7.386;2023-04-24T06:50:33;5.50;;;2.83;;
79308;SDS011;68767;53.078;7.386;2023-04-24T06:53:00;5.35;;;2.95;;
79308;SDS011;68767;53.078;7.386;2023-04-24T06:55:27;10.25;;;3.40;;
79308;SDS011;68767;53.078;7.386;2023-04-24T06:57:54;7.10;;;3.53;;
79308;SDS011;68767;53.078;7.386;2023-04-24T07:00:21;5.57;;;3.30;;
79308;SDS011;68767;53.078;7.386;2023-04-24T07:02:48;5.63;;;3.05;;
79308;SDS011;68767;53.078;7.386;2023-04-24T07:05:15;4.20;;;2.22;;
79308;SDS011;68767;53.078;7.386;2023-04-24T07:07:42;3.40;;;1.80;;
79308;SDS011;68767;53.078;7.386;2023-04-24T07:10:09;3.88;;;2.03;;
79308;SDS011;68767;53.078;7.386;2023-04-24T07:12:36;3.72;;;2.15;;
79308;SDS011;68767;53.078;7.386;2023-04-24T07:15:04;4.22;;;2.50;;
79308;SDS011;68767;53.078;7.386;2023-04-24T07:17:32;7.13;;;1.95;;
79308;SDS011;68767;53.078;7.386;2023-04-24T07:19:59;3.72;;;2.17;;
79308;SDS011;68767;53.078;7.386;2023-04-24T07:22:26;4.45;;;2.45;;
79308;SDS011;68767;53.078;7.386;2023-04-24T07:24:53;4.00;;;2.25;;
79308;SDS011;68767;53.078;7.386;2023-04-24T07:27:20;4.57;;;2.55;;
79308;SDS011;68767;53.078;7.386;2023-04-24T07:29:46;4.07;;;2.30;;
79308;SDS011;68767;53.078;7.386;2023-04-24T07:32:13;6.18;;;2.88;;
79308;SDS011;68767;53.078;7.386;2023-04-24T07:34:40;6.45;;;2.97;;
79308;SDS011;68767;53.078;7.386;2023-04-24T07:37:08;7.68;;;3.63;;
79308;SDS011;68767;53.078;7.386;2023-04-24T07:39:34;6.68;;;3.05;;
79308;SDS011;68767;53.078;7.386;2023-04-24T07:42:01;6.25;;;3.28;;
79308;SDS011;68767;53.078;7.386;2023-04-24T07:44:28;10.32;;;2.95;;
79308;SDS011;68767;53.078;7.386;2023-04-24T07:46:55;7.55;;;3.83;;
79308;SDS011;68767;53.078;7.386;2023-04-24T07:49:23;8.38;;;4.15;;
79308;SDS011;68767;53.078;7.386;2023-04-24T07:51:50;8.18;;;4.10;;
79308;SDS011;68767;53.078;7.386;2023-04-24T07:54:17;9.13;;;4.18;;
79308;SDS011;68767;53.078;7.386;2023-04-24T07:56:43;10.07;;;4.65;;
79308;SDS011;68767;53.078;7.386;2023-04-24T07:59:10;9.13;;;5.10;;
79308;SDS011;68767;53.078;7.386;2023-04-24T08:01:37;12.57;;;4.57;;
79308;SDS011;68767;53.078;7.386;2023-04-24T08:04:04;12.52;;;5.78;;
79308;SDS011;68767;53.078;7.386;2023-04-24T08:06:32;10.88;;;4.88;;
79308;SDS011;68767;53.078;7.386;2023-04-24T08:08:59;15.10;;;7.10;;
79308;SDS011;68767;53.078;7.386;2023-04-24T08:11:27;15.20;;;7.25;;
79308;SDS011;68767;53.078;7.386;2023-04-24T08:13:54;16.73;;;8.43;;
79308;SDS011;68767;53.078;7.386;2023-04-24T08:16:21;15.25;;;7.97;;
79308;SDS011;68767;53.078;7.386;2023-04-24T08:18:50;19.13;;;7.65;;
79308;SDS011;68767;53.078;7.386;2023-04-24T08:21:17;13.73;;;6.78;;
79308;SDS011;68767;53.078;7.386;2023-04-24T08:23:45;20.58;;;9.25;;
79308;SDS011;68767;53.078;7.386;2023-04-24T08:26:12;19.17;;;8.65;;
79308;SDS011;68767;53.078;7.386;2023-04-24T08:28:40;21.27;;;7.95;;
79308;SDS011;68767;53.078;7.386;2023-04-24T08:31:06;21.23;;;8.75;;
79308;SDS011;68767;53.078;7.386;2023-04-24T08:33:34;15.20;;;7.88;;
79308;SDS011;68767;53.078;7.386;2023-04-24T08:36:02;15.98;;;8.20;;
79308;SDS011;68767;53.078;7.386;2023-04-24T08:38:32;21.92;;;8.10;;
79308;SDS011;68767;53.078;7.386;2023-04-24T08:41:00;17.27;;;7.32;;
79308;SDS011;68767;53.078;7.386;2023-04-24T08:43:27;15.52;;;7.28;;
79308;SDS011;68767;53.078;7.386;2023-04-24T08:45:55;15.77;;;7.05;;
79308;SDS011;68767;53.078;7.386;2023-04-24T08:48:23;15.88;;;7.45;;
79308;SDS011;68767;53.078;7.386;2023-04-24T08:50:57;19.80;;;7.13;;
79308;SDS011;68767;53.078;7.386;2023-04-24T08:53:25;15.98;;;7.40;;
79308;SDS011;68767;53.078;7.386;2023-04-24T08:55:55;18.17;;;7.05;;
79308;SDS011;68767;53.078;7.386;2023-04-24T08:58:25;18.73;;;8.07;;
79308;SDS011;68767;53.078;7.386;2023-04-24T09:00:56;12.98;;;5.97;;
79308;SDS011;68767;53.078;7.386;2023-04-24T09:03:24;16.25;;;6.57;;
79308;SDS011;68767;53.078;7.386;2023-04-24T09:05:53;16.80;;;7.68;;
79308;SDS011;68767;53.078;7.386;2023-04-24T09:08:22;16.17;;;7.65;;
79308;SDS011;68767;53.078;7.386;2023-04-24T09:10:51;18.00;;;7.50;;
79308;SDS011;68767;53.078;7.386;2023-04-24T09:13:19;17.10;;;7.07;;
79308;SDS011;68767;53.078;7.386;2023-04-24T09:15:46;16.63;;;7.50;;
79308;SDS011;68767;53.078;7.386;2023-04-24T09:18:13;15.55;;;7.03;;
79308;SDS011;68767;53.078;7.386;2023-04-24T09:23:27;9.63;;;4.32;;
79308;SDS011;68767;53.078;7.386;2023-04-24T09:25:56;12.35;;;4.60;;
79308;SDS011;68767;53.078;7.386;2023-04-24T09:28:31;10.02;;;4.03;;
79308;SDS011;68767;53.078;7.386;2023-04-24T09:31:05;11.63;;;3.83;;
79308;SDS011;68767;53.078;7.386;2023-04-24T09:33:34;9.30;;;3.92;;
79308;SDS011;68767;53.078;7.386;2023-04-24T09:36:01;6.55;;;3.80;;
79308;SDS011;68767;53.078;7.386;2023-04-24T09:40:59;5.75;;;3.22;;
79308;SDS011;68767;53.078;7.386;2023-04-24T09:43:29;10.25;;;3.08;;
79308;SDS011;68767;53.078;7.386;2023-04-24T09:45:57;5.55;;;3.13;;
79308;SDS011;68767;53.078;7.386;2023-04-24T09:48:35;8.60;;;3.90;;
79308;SDS011;68767;53.078;7.386;2023-04-24T09:51:04;9.65;;;5.00;;
79308;SDS011;68767;53.078;7.386;2023-04-24T09:53:37;13.65;;;6.88;;
79308;SDS011;68767;53.078;7.386;2023-04-24T09:56:11;12.40;;;7.43;;
79308;SDS011;68767;53.078;7.386;2023-04-24T09:58:39;14.88;;;8.05;;
79308;SDS011;68767;53.078;7.386;2023-04-24T10:01:06;18.27;;;9.02;;
79308;SDS011;68767;53.078;7.386;2023-04-24T10:03:33;16.05;;;8.38;;
79308;SDS011;68767;53.078;7.386;2023-04-24T10:06:01;18.95;;;9.93;;
79308;SDS011;68767;53.078;7.386;2023-04-24T10:08:35;25.00;;;10.63;;
79308;SDS011;68767;53.078;7.386;2023-04-24T10:11:04;30.33;;;13.63;;
79308;SDS011;68767;53.078;7.386;2023-04-24T10:13:31;33.60;;;13.85;;
79308;SDS011;68767;53.078;7.386;2023-04-24T10:15:59;34.13;;;14.40;;
79308;SDS011;68767;53.078;7.386;2023-04-24T10:18:27;33.08;;;13.23;;
79308;SDS011;68767;53.078;7.386;2023-04-24T10:20:56;29.10;;;11.20;;
79308;SDS011;68767;53.078;7.386;2023-04-24T10:23:24;29.13;;;12.50;;
79308;SDS011;68767;53.078;7.386;2023-04-24T10:25:52;30.95;;;12.95;;
79308;SDS011;68767;53.078;7.386;2023-04-24T10:28:20;29.60;;;12.27;;
79308;SDS011;68767;53.078;7.386;2023-04-24T10:30:47;42.33;;;14.85;;
79308;SDS011;68767;53.078;7.386;2023-04-24T10:33:16;37.58;;;14.20;;
79308;SDS011;68767;53.078;7.386;2023-04-24T10:35:45;38.92;;;15.13;;
79308;SDS011;68767;53.078;7.386;2023-04-24T10:38:21;33.90;;;15.05;;
79308;SDS011;68767;53.078;7.386;2023-04-24T10:40:51;33.72;;;14.00;;
79308;SDS011;68767;53.078;7.386;2023-04-24T10:43:18;39.08;;;15.30;;
79308;SDS011;68767;53.078;7.386;2023-04-24T10:46:04;42.65;;;14.80;;
79308;SDS011;68767;53.078;7.386;2023-04-24T10:48:32;35.33;;;13.80;;
79308;SDS011;68767;53.078;7.386;2023-04-24T10:51:00;31.02;;;12.55;;
79308;SDS011;68767;53.078;7.386;2023-04-24T10:53:28;27.17;;;11.30;;
79308;SDS011;68767;53.078;7.386;2023-04-24T10:58:36;25.35;;;12.02;;
79308;SDS011;68767;53.078;7.386;2023-04-24T11:01:26;25.30;;;11.50;;
79308;SDS011;68767;53.078;7.386;2023-04-24T11:03:58;32.67;;;12.45;;
79308;SDS011;68767;53.078;7.386;2023-04-24T11:06:29;22.80;;;11.05;;
79308;SDS011;68767;53.078;7.386;2023-04-24T11:09:05;24.40;;;11.20;;
79308;SDS011;68767;53.078;7.386;2023-04-24T11:11:34;26.10;;;10.60;;
79308;SDS011;68767;53.078;7.386;2023-04-24T11:14:08;25.20;;;10.75;;
79308;SDS011;68767;53.078;7.386;2023-04-24T11:16:37;21.08;;;10.13;;
79308;SDS011;68767;53.078;7.386;2023-04-24T11:29:38;22.50;;;9.40;;
79308;SDS011;68767;53.078;7.386;2023-04-24T11:34:55;26.67;;;8.93;;
79308;SDS011;68767;53.078;7.386;2023-04-24T11:37:29;23.23;;;9.02;;
79308;SDS011;68767;53.078;7.386;2023-04-24T11:40:01;27.65;;;8.93;;
79308;SDS011;68767;53.078;7.386;2023-04-24T11:42:40;21.33;;;7.97;;
79308;SDS011;68767;53.078;7.386;2023-04-24T11:45:09;23.63;;;8.57;;
79308;SDS011;68767;53.078;7.386;2023-04-24T11:47:40;21.55;;;8.05;;
79308;SDS011;68767;53.078;7.386;2023-04-24T11:50:09;17.65;;;7.57;;
79308;SDS011;68767;53.078;7.386;2023-04-24T11:52:41;19.35;;;6.38;;
79308;SDS011;68767;53.078;7.386;2023-04-24T11:57:43;13.70;;;5.93;;
79308;SDS011;68767;53.078;7.386;2023-04-24T12:00:17;9.90;;;5.20;;
79308;SDS011;68767;53.078;7.386;2023-04-24T12:02:47;19.85;;;6.57;;
79308;SDS011;68767;53.078;7.386;2023-04-24T12:05:27;10.10;;;4.63;;
79308;SDS011;68767;53.078;7.386;2023-04-24T12:07:57;11.52;;;4.55;;
79308;SDS011;68767;53.078;7.386;2023-04-24T12:10:25;15.93;;;5.55;;
79308;SDS011;68767;53.078;7.386;2023-04-24T12:12:53;9.00;;;4.72;;
79308;SDS011;68767;53.078;7.386;2023-04-24T12:15:22;11.75;;;5.05;;
79308;SDS011;68767;53.078;7.386;2023-04-24T12:17:50;10.93;;;4.35;;
79308;SDS011;68767;53.078;7.386;2023-04-24T12:20:23;13.07;;;4.80;;
79308;SDS011;68767;53.078;7.386;2023-04-24T12:22:59;15.43;;;4.72;;
79308;SDS011;68767;53.078;7.386;2023-04-24T12:25:28;10.82;;;4.53;;
79308;SDS011;68767;53.078;7.386;2023-04-24T12:30:30;11.55;;;3.78;;
79308;SDS011;68767;53.078;7.386;2023-04-24T12:33:04;10.38;;;4.40;;
79308;SDS011;68767;53.078;7.386;2023-04-24T12:35:32;16.98;;;5.25;;
79308;SDS011;68767;53.078;7.386;2023-04-24T12:38:10;14.88;;;4.20;;
79308;SDS011;68767;53.078;7.386;2023-04-24T12:40:41;13.10;;;4.22;;
79308;SDS011;68767;53.078;7.386;2023-04-24T12:43:13;13.95;;;4.57;;
79308;SDS011;68767;53.078;7.386;2023-04-24T12:45:41;15.68;;;4.68;;
79308;SDS011;68767;53.078;7.386;2023-04-24T12:48:08;10.57;;;4.05;;
79308;SDS011;68767;53.078;7.386;2023-04-24T12:50:35;9.65;;;3.42;;
79308;SDS011;68767;53.078;7.386;2023-04-24T12:53:02;9.30;;;4.03;;
79308;SDS011;68767;53.078;7.386;2023-04-24T12:55:29;12.10;;;4.10;;
79308;SDS011;68767;53.078;7.386;2023-04-24T12:57:56;13.00;;;4.22;;
79308;SDS011;68767;53.078;7.386;2023-04-24T13:00:24;13.80;;;4.40;;
79308;SDS011;68767;53.078;7.386;2023-04-24T13:02:51;10.48;;;4.38;;
79308;SDS011;68767;53.078;7.386;2023-04-24T13:05:18;13.48;;;4.20;;
79308;SDS011;68767;53.078;7.386;2023-04-24T13:07:45;11.57;;;4.20;;
79308;SDS011;68767;53.078;7.386;2023-04-24T13:10:12;11.07;;;2.92;;
79308;SDS011;68767;53.078;7.386;2023-04-24T13:12:39;8.63;;;3.17;;
79308;SDS011;68767;53.078;7.386;2023-04-24T13:15:07;6.65;;;3.22;;
79308;SDS011;68767;53.078;7.386;2023-04-24T13:17:34;8.52;;;3.08;;
79308;SDS011;68767;53.078;7.386;2023-04-24T13:20:01;18.20;;;3.55;;
79308;SDS011;68767;53.078;7.386;2023-04-24T13:22:29;9.80;;;3.08;;
79308;SDS011;68767;53.078;7.386;2023-04-24T13:24:56;12.82;;;2.80;;
79308;SDS011;68767;53.078;7.386;2023-04-24T13:27:23;6.15;;;2.40;;
79308;SDS011;68767;53.078;7.386;2023-04-24T13:29:50;9.63;;;3.38;;
79308;SDS011;68767;53.078;7.386;2023-04-24T13:32:17;5.75;;;2.47;;
79308;SDS011;68767;53.078;7.386;2023-04-24T13:34:45;9.07;;;2.88;;
79308;SDS011;68767;53.078;7.386;2023-04-24T13:37:12;5.80;;;2.35;;
79308;SDS011;68767;53.078;7.386;2023-04-24T13:39:39;6.65;;;2.42;;
79308;SDS011;68767;53.078;7.386;2023-04-24T13:42:08;6.07;;;2.10;;
79308;SDS011;68767;53.078;7.386;2023-04-24T13:44:35;7.50;;;2.25;;
79308;SDS011;68767;53.078;7.386;2023-04-24T13:47:01;9.60;;;2.58;;
79308;SDS011;68767;53.078;7.386;2023-04-24T13:49:29;5.85;;;2.20;;
79308;SDS011;68767;53.078;7.386;2023-04-24T13:51:56;6.65;;;2.80;;
79308;SDS011;68767;53.078;7.386;2023-04-24T13:54:23;8.13;;;2.63;;
79308;SDS011;68767;53.078;7.386;2023-04-24T13:56:52;5.72;;;2.17;;
79308;SDS011;68767;53.078;7.386;2023-04-24T13:59:19;9.23;;;2.83;;
79308;SDS011;68767;53.078;7.386;2023-04-24T14:01:48;8.70;;;2.95;;
79308;SDS011;68767;53.078;7.386;2023-04-24T14:04:15;9.15;;;2.78;;
79308;SDS011;68767;53.078;7.386;2023-04-24T14:06:43;7.15;;;2.45;;
79308;SDS011;68767;53.078;7.386;2023-04-24T14:09:10;8.93;;;2.75;;
79308;SDS011;68767;53.078;7.386;2023-04-24T14:11:37;6.05;;;2.67;;
79308;SDS011;68767;53.078;7.386;2023-04-24T14:14:04;10.57;;;2.90;;
79308;SDS011;68767;53.078;7.386;2023-04-24T14:16:32;6.90;;;2.13;;
79308;SDS011;68767;53.078;7.386;2023-04-24T14:19:01;11.95;;;2.60;;
79308;SDS011;68767;53.078;7.386;2023-04-24T14:21:28;7.93;;;2.05;;
79308;SDS011;68767;53.078;7.386;2023-04-24T14:23:56;5.97;;;2.33;;
79308;SDS011;68767;53.078;7.386;2023-04-24T14:26:23;6.18;;;2.33;;
79308;SDS011;68767;53.078;7.386;2023-04-24T14:28:51;8.55;;;2.58;;
79308;SDS011;68767;53.078;7.386;2023-04-24T14:31:32;6.78;;;1.98;;
79308;SDS011;68767;53.078;7.386;2023-04-24T14:33:59;4.50;;;2.28;;
79308;SDS011;68767;53.078;7.386;2023-04-24T14:36:26;8.30;;;2.08;;
79308;SDS011;68767;53.078;7.386;2023-04-24T14:38:53;8.32;;;2.15;;
79308;SDS011;68767;53.078;7.386;2023-04-24T14:41:20;4.97;;;2.00;;
79308;SDS011;68767;53.078;7.386;2023-04-24T14:43:47;7.80;;;2.60;;
79308;SDS011;68767;53.078;7.386;2023-04-24T14:46:14;7.38;;;2.10;;
79308;SDS011;68767;53.078;7.386;2023-04-24T14:48:41;6.85;;;2.03;;
79308;SDS011;68767;53.078;7.386;2023-04-24T14:51:08;8.75;;;2.03;;
79308;SDS011;68767;53.078;7.386;2023-04-24T14:53:34;6.40;;;1.55;;
79308;SDS011;68767;53.078;7.386;2023-04-24T14:56:01;4.63;;;1.92;;
79308;SDS011;68767;53.078;7.386;2023-04-24T14:58:29;5.85;;;1.67;;
79308;SDS011;68767;53.078;7.386;2023-04-24T15:00:56;4.40;;;1.70;;
79308;SDS011;68767;53.078;7.386;2023-04-24T15:03:23;3.88;;;1.42;;
79308;SDS011;68767;53.078;7.386;2023-04-24T15:05:50;6.70;;;2.45;;
79308;SDS011;68767;53.078;7.386;2023-04-24T15:08:17;5.10;;;1.70;;
79308;SDS011;68767;53.078;7.386;2023-04-24T15:10:47;6.13;;;1.60;;
79308;SDS011;68767;53.078;7.386;2023-04-24T15:13:14;6.80;;;1.70;;
79308;SDS011;68767;53.078;7.386;2023-04-24T15:15:41;9.43;;;1.95;;
79308;SDS011;68767;53.078;7.386;2023-04-24T15:18:09;4.72;;;1.90;;